Time;durP1;ratioP1;P1;durP2;ratioP2;P2;SDS_P1;SDS_P2;PMS_P1;PMS_P2;Temp;Humidity;BMP_temperature;BMP_pressure;BME280_temperature;BME280_humidity;BME280_pressure;Samples;Min_cycle;Max_cycle;Signal;HPM_P1;HPM_P2
2022/06/25 00:01:31;;;;;;;5.38;4.32;;;;;;;;;;5112071;28;20093;-57
2022/06/25 00:03:58;;;;;;;6.55;4.53;;;;;;;;;;5112499;28;20046;-55
2022/06/25 00:06:25;;;;;;;6.15;4.30;;;;;;;;;;5112401;28;20067;-53
2022/06/25 00:08:55;;;;;;;8.50;4.40;;;;;;;;;;5112434;28;20089;-58
2022/06/25 00:14:11;;;;;;;6.88;4.40;;;;;;;;;;5112149;28;20040;-58
2022/06/25 00:16:39;;;;;;;5.25;4.05;;;;;;;;;;5112116;28;20043;-51
2022/06/25 00:19:06;;;;;;;6.50;4.43;;;;;;;;;;5112205;28;20191;-56
2022/06/25 00:21:34;;;;;;;5.22;3.97;;;;;;;;;;5112309;28;20066;-58
2022/06/25 00:24:01;;;;;;;8.05;4.63;;;;;;;;;;5112021;28;20398;-58
2022/06/25 00:26:31;;;;;;;4.90;4.03;;;;;;;;;;5111770;28;20100;-54
2022/06/25 00:29:00;;;;;;;9.73;4.10;;;;;;;;;;5112013;28;20390;-54
2022/06/25 00:31:28;;;;;;;5.82;4.10;;;;;;;;;;5112170;28;20036;-57
2022/06/25 00:33:55;;;;;;;5.03;4.22;;;;;;;;;;5114117;28;20049;-57
2022/06/25 00:36:22;;;;;;;5.82;4.05;;;;;;;;;;5115945;28;20048;-54
2022/06/25 00:38:49;;;;;;;6.28;4.38;;;;;;;;;;5115924;28;20453;-56
2022/06/25 00:41:17;;;;;;;5.63;4.43;;;;;;;;;;5097391;28;20043;-56
2022/06/25 00:43:44;;;;;;;6.85;4.60;;;;;;;;;;5115877;28;20489;-57
2022/06/25 00:46:11;;;;;;;4.90;3.92;;;;;;;;;;5115798;28;20052;-57
2022/06/25 00:48:39;;;;;;;5.45;3.55;;;;;;;;;;5097906;28;20039;-56
2022/06/25 00:51:14;;;;;;;5.03;4.00;;;;;;;;;;5115797;28;20048;-56
2022/06/25 00:53:45;;;;;;;6.45;3.20;;;;;;;;;;5097095;28;20042;-58
2022/06/25 00:56:14;;;;;;;5.57;4.15;;;;;;;;;;5115684;28;20093;-59
2022/06/25 00:58:44;;;;;;;5.90;3.80;;;;;;;;;;5115423;28;20043;-57
2022/06/25 01:01:14;;;;;;;5.28;4.30;;;;;;;;;;5097378;28;20040;-54
2022/06/25 01:03:42;;;;;;;6.25;4.38;;;;;;;;;;5115724;28;20036;-57
2022/06/25 01:06:10;;;;;;;7.65;5.15;;;;;;;;;;5097620;28;20051;-54
2022/06/25 01:08:37;;;;;;;4.75;3.42;;;;;;;;;;5115475;28;20054;-56
2022/06/25 01:11:07;;;;;;;5.97;3.95;;;;;;;;;;5115315;28;20040;-57
2022/06/25 01:13:35;;;;;;;5.38;3.95;;;;;;;;;;5097550;28;20035;-56
2022/06/25 01:16:03;;;;;;;7.18;3.97;;;;;;;;;;5114896;28;20047;-57
2022/06/25 01:18:31;;;;;;;5.35;3.50;;;;;;;;;;5096914;28;20066;-56
2022/06/25 01:20:59;;;;;;;4.68;3.90;;;;;;;;;;5114967;28;20489;-52
2022/06/25 01:23:29;;;;;;;5.72;4.30;;;;;;;;;;5097056;28;20397;-54
2022/06/25 01:25:57;;;;;;;8.85;5.13;;;;;;;;;;5096677;28;20073;-55
2022/06/25 01:28:24;;;;;;;7.72;3.83;;;;;;;;;;5115327;28;20084;-57
2022/06/25 01:30:51;;;;;;;6.75;3.83;;;;;;;;;;5115298;28;20050;-56
2022/06/25 01:33:19;;;;;;;5.28;4.05;;;;;;;;;;5115011;28;20087;-56
2022/06/25 01:35:46;;;;;;;4.93;3.90;;;;;;;;;;5114792;28;20532;-57
2022/06/25 01:38:21;;;;;;;5.82;3.60;;;;;;;;;;5114895;28;20069;-57
2022/06/25 01:40:48;;;;;;;6.80;4.03;;;;;;;;;;5114779;28;20039;-56
2022/06/25 01:43:16;;;;;;;4.93;3.72;;;;;;;;;;5114622;28;20577;-57
2022/06/25 01:45:44;;;;;;;4.60;3.65;;;;;;;;;;5096201;28;20551;-56
2022/06/25 01:48:12;;;;;;;4.95;4.30;;;;;;;;;;5114650;28;20039;-56
2022/06/25 01:50:39;;;;;;;4.70;3.88;;;;;;;;;;5096131;28;20154;-57
2022/06/25 01:53:07;;;;;;;5.90;3.95;;;;;;;;;;5114484;28;20510;-57
2022/06/25 01:55:35;;;;;;;5.32;4.28;;;;;;;;;;5096108;28;20376;-58
2022/06/25 01:58:04;;;;;;;6.38;3.63;;;;;;;;;;5096169;28;20035;-56
2022/06/25 02:00:33;;;;;;;5.60;3.63;;;;;;;;;;5114383;28;20050;-56
2022/06/25 02:03:06;;;;;;;4.35;3.95;;;;;;;;;;5114395;28;20100;-56
2022/06/25 02:08:21;;;;;;;7.35;4.10;;;;;;;;;;5095943;28;20039;-56
2022/06/25 02:10:49;;;;;;;4.43;3.60;;;;;;;;;;5113952;28;20046;-58
2022/06/25 02:13:17;;;;;;;6.10;3.63;;;;;;;;;;5114246;28;20039;-53
2022/06/25 02:15:44;;;;;;;7.13;3.88;;;;;;;;;;5095931;28;20048;-57
2022/06/25 02:18:11;;;;;;;5.20;3.95;;;;;;;;;;5114298;28;20071;-59
2022/06/25 02:20:39;;;;;;;6.22;4.15;;;;;;;;;;5114022;28;20047;-56
2022/06/25 02:23:08;;;;;;;5.07;3.90;;;;;;;;;;5095471;28;20043;-58
2022/06/25 02:25:36;;;;;;;5.10;3.70;;;;;;;;;;5129621;27;20063;-58
2022/06/25 02:28:11;;;;;;;5.05;3.90;;;;;;;;;;5095698;28;20043;-58
2022/06/25 02:30:39;;;;;;;4.93;3.67;;;;;;;;;;5113955;28;20375;-58
2022/06/25 02:33:11;;;;;;;5.60;3.88;;;;;;;;;;5113632;28;20119;-56
2022/06/25 02:35:43;;;;;;;7.30;4.28;;;;;;;;;;5113371;28;20092;-55
2022/06/25 02:38:14;;;;;;;5.45;3.40;;;;;;;;;;5095410;28;20044;-57
2022/06/25 02:40:46;;;;;;;6.43;4.13;;;;;;;;;;5095366;28;20059;-57
2022/06/25 02:43:14;;;;;;;4.43;3.90;;;;;;;;;;5113621;28;20046;-58
2022/06/25 02:45:46;;;;;;;5.65;3.70;;;;;;;;;;5095381;28;20449;-58
2022/06/25 02:48:14;;;;;;;5.78;3.63;;;;;;;;;;5094896;28;20040;-58
2022/06/25 02:50:43;;;;;;;5.10;4.00;;;;;;;;;;5094952;28;20077;-58
2022/06/25 02:53:12;;;;;;;6.28;4.38;;;;;;;;;;5113455;28;20046;-57
2022/06/25 03:01:37;;;;;;;5.97;4.55;;;;;;;;;;5010536;28;20049;-58
2022/06/25 03:04:05;;;;;;;6.72;4.40;;;;;;;;;;4994502;28;20042;-58
2022/06/25 03:06:32;;;;;;;6.28;3.75;;;;;;;;;;5064625;28;20135;-58
2022/06/25 03:09:00;;;;;;;6.13;4.78;;;;;;;;;;5112850;28;20498;-58
2022/06/25 03:11:27;;;;;;;7.60;5.47;;;;;;;;;;5113366;28;20089;-56
2022/06/25 03:13:55;;;;;;;7.03;4.40;;;;;;;;;;5094680;28;20055;-57
2022/06/25 03:16:22;;;;;;;7.60;5.47;;;;;;;;;;5094741;28;20104;-57
2022/06/25 03:18:51;;;;;;;7.47;6.28;;;;;;;;;;5094477;28;20486;-58
2022/06/25 03:21:37;;;;;;;6.97;5.65;;;;;;;;;;5112671;28;20177;-58
2022/06/25 03:24:06;;;;;;;9.93;7.85;;;;;;;;;;5094507;28;20043;-56
2022/06/25 03:26:35;;;;;;;10.93;8.35;;;;;;;;;;5100816;28;20094;-58
2022/06/25 03:29:03;;;;;;;10.57;8.35;;;;;;;;;;5094422;28;20051;-58
2022/06/25 03:31:33;;;;;;;11.10;8.68;;;;;;;;;;5094654;28;20111;-57
2022/06/25 03:34:08;;;;;;;12.20;8.55;;;;;;;;;;5094328;28;20108;-58
2022/06/25 03:36:46;;;;;;;10.40;8.20;;;;;;;;;;5094102;28;20054;-58
2022/06/25 03:39:15;;;;;;;11.20;8.27;;;;;;;;;;5094504;28;20035;-58
2022/06/25 03:41:43;;;;;;;33.30;22.27;;;;;;;;;;5094171;28;20130;-58
2022/06/25 03:44:26;;;;;;;27.70;20.10;;;;;;;;;;5094033;28;20486;-56
2022/06/25 03:47:02;;;;;;;15.23;11.18;;;;;;;;;;5094460;28;20048;-57
2022/06/25 03:49:33;;;;;;;13.80;10.43;;;;;;;;;;5094584;28;20435;-58
2022/06/25 03:52:05;;;;;;;10.05;7.50;;;;;;;;;;5093984;28;20054;-59
2022/06/25 03:54:32;;;;;;;8.95;7.00;;;;;;;;;;5094605;28;20036;-59
2022/06/25 03:57:00;;;;;;;8.80;6.78;;;;;;;;;;5112099;28;20036;-59
2022/06/25 03:59:41;;;;;;;7.90;5.97;;;;;;;;;;5094243;28;20398;-60
2022/06/25 04:02:19;;;;;;;168.25;137.50;;;;;;;;;;5094270;28;20040;-59
2022/06/25 04:05:10;;;;;;;36.58;28.17;;;;;;;;;;5082740;28;20050;-59
2022/06/25 04:07:37;;;;;;;17.55;11.98;;;;;;;;;;5095775;28;20058;-59
2022/06/25 04:10:07;;;;;;;8.15;5.97;;;;;;;;;;5098242;28;20063;-59
2022/06/25 04:12:35;;;;;;;8.07;5.50;;;;;;;;;;5116869;28;20032;-60
2022/06/25 04:15:03;;;;;;;6.93;5.50;;;;;;;;;;5116544;28;20528;-59
2022/06/25 04:17:31;;;;;;;6.75;5.15;;;;;;;;;;5098292;28;20051;-59
2022/06/25 04:20:00;;;;;;;7.75;5.80;;;;;;;;;;5098030;28;20387;-56
2022/06/25 04:22:28;;;;;;;25.15;19.02;;;;;;;;;;5098044;28;20529;-59
2022/06/25 04:24:55;;;;;;;7.10;5.18;;;;;;;;;;5090574;28;20047;-59
2022/06/25 04:30:10;;;;;;;8.15;4.80;;;;;;;;;;5095727;28;20115;-57
2022/06/25 04:32:41;;;;;;;6.15;4.70;;;;;;;;;;5091592;28;20082;-60
2022/06/25 04:35:13;;;;;;;5.82;4.60;;;;;;;;;;5097830;28;20040;-57
2022/06/25 04:37:42;;;;;;;7.03;4.63;;;;;;;;;;5097813;28;20065;-58
2022/06/25 04:40:12;;;;;;;15.05;7.93;;;;;;;;;;5097580;28;20063;-57
2022/06/25 04:42:42;;;;;;;8.25;5.20;;;;;;;;;;5097714;28;20494;-58
2022/06/25 04:45:10;;;;;;;11.38;7.93;;;;;;;;;;5097513;28;20048;-58
2022/06/25 04:47:48;;;;;;;7.03;4.45;;;;;;;;;;5097683;28;20036;-56
2022/06/25 04:50:35;;;;;;;5.40;4.22;;;;;;;;;;5115409;28;20047;-59
2022/06/25 04:53:03;;;;;;;5.32;4.55;;;;;;;;;;5097707;28;20047;-57
2022/06/25 04:55:30;;;;;;;5.88;4.50;;;;;;;;;;5097251;28;20043;-58
2022/06/25 04:57:59;;;;;;;6.80;4.50;;;;;;;;;;5097345;28;20055;-56
2022/06/25 05:00:45;;;;;;;5.63;4.32;;;;;;;;;;5115761;28;20553;-58
2022/06/25 05:03:13;;;;;;;5.72;4.68;;;;;;;;;;5115571;28;20054;-58
2022/06/25 05:06:01;;;;;;;5.30;3.97;;;;;;;;;;5097233;28;20521;-57
2022/06/25 05:08:29;;;;;;;6.55;4.55;;;;;;;;;;5097092;28;20085;-57
2022/06/25 05:10:56;;;;;;;5.55;4.07;;;;;;;;;;5115570;28;20036;-58
2022/06/25 05:13:24;;;;;;;5.85;4.15;;;;;;;;;;5097363;28;20046;-58
2022/06/25 05:15:52;;;;;;;5.78;4.03;;;;;;;;;;5115418;28;20039;-58
2022/06/25 05:18:20;;;;;;;7.20;3.80;;;;;;;;;;5115071;28;20403;-57
2022/06/25 05:20:48;;;;;;;50.13;35.92;;;;;;;;;;5096088;28;20042;-58
2022/06/25 05:23:15;;;;;;;8.82;6.03;;;;;;;;;;5097419;28;20046;-57
2022/06/25 05:25:43;;;;;;;7.20;4.00;;;;;;;;;;5096832;28;20043;-58
2022/06/25 05:28:12;;;;;;;4.90;3.88;;;;;;;;;;5079923;28;20046;-58
2022/06/25 05:30:41;;;;;;;5.40;3.63;;;;;;;;;;5096611;28;20075;-57
2022/06/25 05:33:08;;;;;;;5.05;3.47;;;;;;;;;;5096879;28;20043;-58
2022/06/25 05:35:36;;;;;;;5.68;3.67;;;;;;;;;;5096652;28;20118;-57
2022/06/25 05:38:06;;;;;;;6.85;3.90;;;;;;;;;;5113933;28;20063;-57
2022/06/25 05:40:34;;;;;;;6.65;3.47;;;;;;;;;;5096504;28;20035;-57
2022/06/25 05:43:02;;;;;;;5.50;3.72;;;;;;;;;;5115035;28;20110;-58
2022/06/25 05:45:29;;;;;;;10.63;5.07;;;;;;;;;;5114760;28;20035;-57
2022/06/25 05:47:57;;;;;;;12.13;10.32;;;;;;;;;;5114803;28;20078;-58
2022/06/25 05:50:24;;;;;;;7.20;6.07;;;;;;;;;;5114522;28;20101;-58
2022/06/25 05:52:53;;;;;;;4.63;3.83;;;;;;;;;;5114742;28;20044;-58
2022/06/25 05:55:22;;;;;;;5.43;3.95;;;;;;;;;;5114550;28;20040;-58
2022/06/25 05:57:50;;;;;;;4.47;3.55;;;;;;;;;;5114321;28;20061;-58
2022/06/25 06:00:18;;;;;;;4.55;3.35;;;;;;;;;;5114162;28;20039;-58
2022/06/25 06:02:45;;;;;;;6.15;3.45;;;;;;;;;;5114435;28;20109;-57
2022/06/25 06:05:13;;;;;;;5.10;3.88;;;;;;;;;;5114484;28;20031;-58
2022/06/25 06:07:40;;;;;;;4.53;3.50;;;;;;;;;;5114479;28;20040;-58
2022/06/25 06:10:08;;;;;;;4.13;3.10;;;;;;;;;;5114546;28;20040;-58
2022/06/25 06:12:36;;;;;;;4.35;3.22;;;;;;;;;;5114177;28;20092;-57
2022/06/25 06:15:03;;;;;;;5.40;3.63;;;;;;;;;;5096520;28;20406;-58
2022/06/25 06:17:32;;;;;;;4.80;3.40;;;;;;;;;;5114167;28;20051;-58
2022/06/25 06:20:00;;;;;;;4.57;3.47;;;;;;;;;;5109855;28;20461;-57
2022/06/25 06:22:28;;;;;;;4.43;3.25;;;;;;;;;;5093771;28;20036;-56
2022/06/25 06:24:55;;;;;;;8.18;3.55;;;;;;;;;;5093463;28;20066;-58
2022/06/25 06:27:23;;;;;;;30.60;21.15;;;;;;;;;;5093562;28;20494;-57
2022/06/25 06:29:53;;;;;;;20.92;15.68;;;;;;;;;;5093313;28;20491;-59
2022/06/25 06:32:22;;;;;;;6.70;4.75;;;;;;;;;;5092492;28;20054;-56
2022/06/25 06:34:50;;;;;;;4.38;2.60;;;;;;;;;;5093549;28;20101;-59
2022/06/25 06:37:17;;;;;;;6.35;2.42;;;;;;;;;;5093426;28;20055;-58
2022/06/25 06:39:45;;;;;;;4.28;2.47;;;;;;;;;;5093518;28;20054;-58
2022/06/25 06:42:13;;;;;;;4.20;1.90;;;;;;;;;;5093247;28;20040;-58
2022/06/25 06:44:40;;;;;;;3.42;2.00;;;;;;;;;;5075385;28;20044;-58
2022/06/25 06:47:08;;;;;;;4.55;2.25;;;;;;;;;;5093202;28;20043;-58
2022/06/25 06:49:36;;;;;;;4.18;2.13;;;;;;;;;;5093215;28;20499;-58
2022/06/25 06:52:04;;;;;;;3.80;2.42;;;;;;;;;;5092736;28;20058;-58
2022/06/25 06:54:32;;;;;;;5.28;2.05;;;;;;;;;;5092894;28;20048;-59
2022/06/25 06:56:59;;;;;;;3.58;2.25;;;;;;;;;;5093042;28;20039;-57
2022/06/25 06:59:27;;;;;;;2.70;2.20;;;;;;;;;;5092884;28;20419;-58
2022/06/25 07:01:54;;;;;;;3.38;2.30;;;;;;;;;;5099321;28;20119;-59
2022/06/25 07:04:22;;;;;;;3.38;2.60;;;;;;;;;;5113078;28;20486;-57
2022/06/25 07:06:50;;;;;;;14.95;10.25;;;;;;;;;;5113316;28;20045;-59
2022/06/25 07:09:17;;;;;;;4.07;2.83;;;;;;;;;;5113260;28;20081;-58
2022/06/25 07:11:44;;;;;;;2.85;2.25;;;;;;;;;;5113183;28;20035;-63
2022/06/25 07:14:14;;;;;;;4.22;2.40;;;;;;;;;;5113255;28;20066;-59
2022/06/25 07:16:42;;;;;;;3.60;2.15;;;;;;;;;;5113113;28;20448;-59
2022/06/25 07:19:12;;;;;;;4.00;2.20;;;;;;;;;;5112853;28;20047;-57
2022/06/25 07:21:39;;;;;;;3.80;2.63;;;;;;;;;;5112860;28;20038;-58
2022/06/25 07:24:06;;;;;;;3.33;2.40;;;;;;;;;;5112778;28;20119;-59
2022/06/25 07:26:35;;;;;;;4.07;2.70;;;;;;;;;;5112552;28;20435;-58
2022/06/25 07:29:03;;;;;;;3.22;2.47;;;;;;;;;;5112837;28;20043;-58
2022/06/25 07:31:31;;;;;;;3.00;2.20;;;;;;;;;;5112686;28;20035;-58
2022/06/25 07:33:58;;;;;;;4.65;2.40;;;;;;;;;;5112569;28;20542;-55
2022/06/25 07:36:26;;;;;;;3.78;2.70;;;;;;;;;;5112842;28;20380;-58
2022/06/25 07:38:53;;;;;;;4.50;2.70;;;;;;;;;;5112620;28;20040;-58
2022/06/25 07:41:21;;;;;;;5.68;2.90;;;;;;;;;;5112767;28;20474;-60
2022/06/25 07:43:50;;;;;;;5.05;3.30;;;;;;;;;;5112490;28;20043;-58
2022/06/25 07:46:18;;;;;;;4.10;2.70;;;;;;;;;;5112309;28;20044;-58
2022/06/25 07:48:45;;;;;;;3.92;2.60;;;;;;;;;;5112913;28;20070;-59
2022/06/25 07:53:59;;;;;;;3.58;2.50;;;;;;;;;;5112376;28;20061;-59
2022/06/25 07:56:26;;;;;;;4.53;2.90;;;;;;;;;;5112160;28;20498;-58
2022/06/25 07:58:54;;;;;;;3.95;2.78;;;;;;;;;;5094325;28;20088;-59
2022/06/25 08:01:21;;;;;;;4.25;2.47;;;;;;;;;;5112309;28;20441;-58
2022/06/25 08:03:51;;;;;;;5.70;3.13;;;;;;;;;;5112428;28;20499;-58
2022/06/25 08:06:18;;;;;;;3.53;2.58;;;;;;;;;;5112356;28;20093;-57
2022/06/25 08:08:45;;;;;;;3.72;2.47;;;;;;;;;;5112507;28;20089;-59
2022/06/25 08:11:12;;;;;;;5.95;2.78;;;;;;;;;;5112039;28;20139;-58
2022/06/25 08:13:40;;;;;;;4.03;2.55;;;;;;;;;;5112333;28;20050;-59
2022/06/25 08:16:09;;;;;;;4.10;2.60;;;;;;;;;;5112366;28;20052;-57
2022/06/25 08:18:38;;;;;;;4.03;2.80;;;;;;;;;;5112110;28;20039;-58
2022/06/25 08:21:06;;;;;;;5.43;2.65;;;;;;;;;;5112268;28;20433;-59
2022/06/25 08:23:36;;;;;;;4.72;2.90;;;;;;;;;;5112040;28;20036;-57
2022/06/25 08:26:03;;;;;;;5.82;2.88;;;;;;;;;;5112301;28;20125;-59
2022/06/25 08:28:33;;;;;;;4.15;3.00;;;;;;;;;;5112277;28;20044;-57
2022/06/25 08:31:02;;;;;;;3.58;2.50;;;;;;;;;;5112200;28;20039;-58
2022/06/25 08:33:29;;;;;;;3.72;2.83;;;;;;;;;;5112191;28;20048;-60
2022/06/25 08:35:57;;;;;;;4.57;3.00;;;;;;;;;;5093680;28;20044;-57
2022/06/25 08:38:24;;;;;;;5.13;2.80;;;;;;;;;;5111747;28;20047;-58
2022/06/25 08:41:01;;;;;;;4.63;2.25;;;;;;;;;;5112125;28;20040;-57
2022/06/25 08:43:29;;;;;;;3.28;2.35;;;;;;;;;;5111756;28;20055;-58
2022/06/25 08:45:56;;;;;;;14.13;7.93;;;;;;;;;;5111476;28;20490;-59
2022/06/25 08:48:31;;;;;;;4.95;4.05;;;;;;;;;;5111747;28;20048;-57
2022/06/25 08:50:59;;;;;;;3.63;2.42;;;;;;;;;;5111713;28;20490;-58
2022/06/25 08:53:34;;;;;;;3.75;2.20;;;;;;;;;;5111837;28;20032;-57
2022/06/25 08:56:03;;;;;;;3.25;2.05;;;;;;;;;;5115423;28;20039;-57
2022/06/25 08:58:30;;;;;;;5.88;2.30;;;;;;;;;;5115580;28;20055;-57
2022/06/25 09:00:57;;;;;;;2.75;1.90;;;;;;;;;;5116061;28;20032;-56
2022/06/25 09:03:25;;;;;;;6.22;2.25;;;;;;;;;;5115481;28;20093;-57
2022/06/25 09:05:52;;;;;;;3.75;2.22;;;;;;;;;;5113643;28;20498;-57
2022/06/25 09:08:20;;;;;;;4.18;2.40;;;;;;;;;;5113267;28;20059;-57
2022/06/25 09:10:53;;;;;;;3.67;2.22;;;;;;;;;;5113200;28;20031;-57
2022/06/25 09:13:25;;;;;;;3.75;1.80;;;;;;;;;;5113576;28;20040;-58
2022/06/25 09:15:52;;;;;;;3.15;2.08;;;;;;;;;;5113082;28;20032;-56
2022/06/25 09:18:20;;;;;;;3.35;1.95;;;;;;;;;;5113172;28;20040;-58
2022/06/25 09:21:10;;;;;;;6.03;2.13;;;;;;;;;;5113438;28;20046;-57
2022/06/25 09:24:03;;;;;;;90.18;61.70;;;;;;;;;;5113141;28;20039;-58
2022/06/25 09:26:31;;;;;;;5.65;3.85;;;;;;;;;;5113252;28;20533;-57
2022/06/25 09:29:01;;;;;;;3.55;2.10;;;;;;;;;;5112910;28;20525;-57
2022/06/25 09:31:36;;;;;;;2.75;2.13;;;;;;;;;;5113065;28;20518;-58
2022/06/25 09:34:06;;;;;;;3.95;2.33;;;;;;;;;;5113210;28;20043;-56
2022/06/25 09:36:33;;;;;;;3.47;1.88;;;;;;;;;;5114989;28;20040;-57
2022/06/25 09:39:01;;;;;;;3.78;2.00;;;;;;;;;;5115067;28;20055;-57
2022/06/25 09:41:48;;;;;;;2.83;1.92;;;;;;;;;;5114901;28;20046;-56
2022/06/25 09:44:18;;;;;;;6.20;2.78;;;;;;;;;;5114449;28;20546;-56
2022/06/25 09:47:00;;;;;;;3.17;2.10;;;;;;;;;;5096769;28;20403;-57
2022/06/25 09:49:27;;;;;;;2.92;2.10;;;;;;;;;;5114716;28;20036;-57
2022/06/25 09:51:59;;;;;;;35.67;32.53;;;;;;;;;;5114721;28;20040;-54
2022/06/25 09:54:26;;;;;;;2.92;2.22;;;;;;;;;;5114747;28;20040;-56
2022/06/25 09:56:54;;;;;;;4.55;2.17;;;;;;;;;;5114768;28;20064;-57
2022/06/25 09:59:24;;;;;;;3.90;2.50;;;;;;;;;;5114804;28;20082;-57
2022/06/25 10:01:51;;;;;;;3.40;2.08;;;;;;;;;;5114737;28;20039;-57
2022/06/25 10:04:20;;;;;;;4.82;2.10;;;;;;;;;;5096380;28;20414;-57
2022/06/25 10:06:51;;;;;;;8.23;5.88;;;;;;;;;;5114221;28;20441;-58
2022/06/25 10:09:20;;;;;;;2.65;1.90;;;;;;;;;;5114398;28;20069;-57
2022/06/25 10:11:48;;;;;;;3.67;1.90;;;;;;;;;;5114225;28;20415;-58
2022/06/25 10:14:15;;;;;;;3.85;1.90;;;;;;;;;;5113647;28;20069;-57
2022/06/25 10:16:47;;;;;;;3.80;1.90;;;;;;;;;;5114376;28;20543;-59
2022/06/25 10:19:17;;;;;;;2.85;1.95;;;;;;;;;;5114323;28;20039;-57
2022/06/25 10:21:44;;;;;;;3.90;2.35;;;;;;;;;;5113799;28;20035;-56
2022/06/25 10:24:12;;;;;;;3.88;2.40;;;;;;;;;;5113616;28;20110;-57
2022/06/25 10:26:40;;;;;;;3.10;2.08;;;;;;;;;;5113048;28;20059;-57
2022/06/25 10:29:25;;;;;;;5.47;2.45;;;;;;;;;;5111797;28;20050;-56
2022/06/25 10:32:12;;;;;;;2.92;1.95;;;;;;;;;;5113619;28;20040;-57
2022/06/25 10:34:52;;;;;;;6.65;1.98;;;;;;;;;;5112201;28;20039;-57
2022/06/25 10:37:19;;;;;;;6.68;2.15;;;;;;;;;;5111355;28;20031;-57
2022/06/25 10:39:54;;;;;;;4.85;1.85;;;;;;;;;;5111422;28;20092;-57
2022/06/25 10:45:10;;;;;;;2.88;2.17;;;;;;;;;;5111729;28;20043;-57
2022/06/25 10:47:59;;;;;;;4.60;2.45;;;;;;;;;;5111305;28;20046;-57
2022/06/25 10:50:28;;;;;;;2.72;2.00;;;;;;;;;;5112906;28;20056;-56
2022/06/25 10:53:02;;;;;;;2.80;2.20;;;;;;;;;;5113630;28;20051;-50
2022/06/25 10:55:30;;;;;;;3.92;2.70;;;;;;;;;;5112857;28;20031;-55
2022/06/25 10:58:12;;;;;;;2.85;2.03;;;;;;;;;;5112940;28;20051;-57
2022/06/25 11:01:01;;;;;;;5.47;2.08;;;;;;;;;;5113406;28;20039;-57
2022/06/25 11:03:29;;;;;;;3.35;2.10;;;;;;;;;;5113444;28;20040;-57
2022/06/25 11:06:17;;;;;;;27.00;18.67;;;;;;;;;;5113203;28;20040;-50
2022/06/25 11:08:46;;;;;;;5.25;2.60;;;;;;;;;;5113248;28;20050;-56
2022/06/25 11:11:28;;;;;;;3.88;2.22;;;;;;;;;;5113001;28;20081;-57
2022/06/25 11:13:57;;;;;;;;;;;;;;;;;;5113875;28;20074;-50
2022/06/25 11:16:24;;;;;;;4.03;2.00;;;;;;;;;;5112956;28;19920;-56
2022/06/25 11:18:57;;;;;;;4.68;2.10;;;;;;;;;;5112772;28;20056;-56
2022/06/25 11:21:36;;;;;;;4.20;2.03;;;;;;;;;;5113185;28;20054;-57
2022/06/25 11:24:05;;;;;;;4.85;1.92;;;;;;;;;;5094968;28;20042;-58
2022/06/25 11:29:27;;;;;;;3.72;2.00;;;;;;;;;;5112975;28;20047;-57
2022/06/25 11:31:58;;;;;;;3.83;2.10;;;;;;;;;;5112960;28;20118;-56
2022/06/25 11:34:27;;;;;;;2.78;1.75;;;;;;;;;;5112985;28;20043;-56
2022/06/25 11:37:09;;;;;;;4.10;2.00;;;;;;;;;;5112683;28;20044;-56
2022/06/25 11:39:39;;;;;;;3.35;1.67;;;;;;;;;;5094630;28;20039;-56
2022/06/25 11:42:10;;;;;;;4.68;2.25;;;;;;;;;;5112178;28;20050;-53
2022/06/25 11:44:46;;;;;;;5.03;2.58;;;;;;;;;;5111929;28;20043;-56
2022/06/25 11:47:26;;;;;;;13.50;12.02;;;;;;;;;;5112683;28;20487;-58
2022/06/25 11:49:54;;;;;;;3.03;2.08;;;;;;;;;;5094608;28;20063;-55
2022/06/25 11:52:24;;;;;;;3.38;2.22;;;;;;;;;;5104239;28;20055;-56
2022/06/25 11:54:52;;;;;;;2.67;1.77;;;;;;;;;;5089106;28;20086;-57
2022/06/25 11:57:22;;;;;;;3.58;1.65;;;;;;;;;;5089920;28;20043;-55
2022/06/25 11:59:51;;;;;;;2.85;2.00;;;;;;;;;;5090061;28;20043;-57
2022/06/25 12:02:20;;;;;;;2.53;1.95;;;;;;;;;;5089942;28;20043;-57
2022/06/25 12:05:00;;;;;;;2.58;1.98;;;;;;;;;;5090089;28;20040;-56
2022/06/25 12:07:30;;;;;;;2.72;1.85;;;;;;;;;;5090369;28;20109;-56
2022/06/25 12:10:02;;;;;;;3.42;1.73;;;;;;;;;;5092031;28;20043;-54
2022/06/25 12:12:30;;;;;;;2.85;1.75;;;;;;;;;;5092170;28;20034;-57
2022/06/25 12:15:01;;;;;;;3.90;2.58;;;;;;;;;;5091774;28;20036;-56
2022/06/25 12:17:34;;;;;;;4.22;1.90;;;;;;;;;;5091706;28;20575;-56
2022/06/25 12:20:10;;;;;;;2.65;1.90;;;;;;;;;;5091722;28;20032;-57
2022/06/25 12:22:41;;;;;;;2.50;1.85;;;;;;;;;;5091887;28;20043;-57
2022/06/25 12:25:10;;;;;;;4.72;2.30;;;;;;;;;;5091436;28;20040;-57
2022/06/25 12:27:48;;;;;;;3.05;2.22;;;;;;;;;;5091210;28;20044;-57
2022/06/25 12:30:31;;;;;;;2.25;1.70;;;;;;;;;;5095173;28;20093;-57
2022/06/25 12:33:13;;;;;;;3.20;2.08;;;;;;;;;;5095352;28;20047;-54
2022/06/25 12:35:42;;;;;;;6.22;1.92;;;;;;;;;;5095199;28;20062;-53
2022/06/25 12:38:11;;;;;;;4.15;2.05;;;;;;;;;;5095403;28;20043;-56
2022/06/25 12:40:42;;;;;;;2.33;1.58;;;;;;;;;;5095453;28;20403;-55
2022/06/25 12:43:11;;;;;;;2.67;1.70;;;;;;;;;;5095921;28;20093;-57
2022/06/25 12:45:42;;;;;;;2.83;1.70;;;;;;;;;;5095666;28;20048;-57
2022/06/25 12:48:10;;;;;;;2.40;1.80;;;;;;;;;;5095472;28;20036;-53
2022/06/25 12:50:45;;;;;;;3.00;1.80;;;;;;;;;;5095252;28;20495;-57
2022/06/25 12:53:15;;;;;;;2.35;1.70;;;;;;;;;;5095388;28;20140;-57
2022/06/25 12:55:48;;;;;;;4.05;1.70;;;;;;;;;;5095388;28;20059;-57
2022/06/25 12:58:17;;;;;;;4.07;2.30;;;;;;;;;;5095106;28;20072;-57
2022/06/25 13:00:45;;;;;;;2.50;1.77;;;;;;;;;;5094832;28;20040;-57
2022/06/25 13:03:15;;;;;;;4.30;1.63;;;;;;;;;;5095341;28;20497;-57
2022/06/25 13:05:42;;;;;;;5.00;2.00;;;;;;;;;;5095060;28;20036;-57
2022/06/25 13:08:10;;;;;;;3.08;1.67;;;;;;;;;;5095012;28;20043;-54
2022/06/25 13:10:37;;;;;;;2.58;1.80;;;;;;;;;;5095249;28;20044;-57
2022/06/25 13:13:04;;;;;;;2.33;1.70;;;;;;;;;;5095081;28;20044;-58
2022/06/25 13:15:34;;;;;;;3.75;1.60;;;;;;;;;;5094964;28;20498;-56
2022/06/25 13:18:03;;;;;;;3.67;1.63;;;;;;;;;;5094857;28;20409;-58
2022/06/25 13:20:34;;;;;;;3.50;1.80;;;;;;;;;;5094907;28;20085;-58
2022/06/25 13:23:01;;;;;;;4.43;1.65;;;;;;;;;;5094852;28;20044;-57
2022/06/25 13:25:28;;;;;;;3.42;1.73;;;;;;;;;;5094861;28;20086;-56
2022/06/25 13:27:55;;;;;;;4.82;2.08;;;;;;;;;;5094947;28;20149;-57
2022/06/25 13:30:23;;;;;;;2.38;1.35;;;;;;;;;;5094907;28;20036;-56
2022/06/25 13:33:10;;;;;;;4.03;1.45;;;;;;;;;;5094661;28;20059;-57
2022/06/25 13:35:37;;;;;;;2.33;1.58;;;;;;;;;;5094699;28;20040;-56
2022/06/25 13:38:05;;;;;;;2.03;1.40;;;;;;;;;;5094686;28;20052;-53
2022/06/25 13:40:32;;;;;;;2.30;1.60;;;;;;;;;;5093852;28;20036;-54
2022/06/25 13:42:59;;;;;;;2.40;1.55;;;;;;;;;;5094645;28;20040;-56
2022/06/25 13:45:27;;;;;;;6.10;2.50;;;;;;;;;;5094476;28;20074;-52
2022/06/25 13:47:54;;;;;;;3.58;1.63;;;;;;;;;;5094791;28;20281;-56
2022/06/25 13:50:23;;;;;;;3.72;1.80;;;;;;;;;;5094183;28;20075;-57
2022/06/25 13:52:50;;;;;;;2.47;1.80;;;;;;;;;;5094183;28;20040;-55
2022/06/25 13:55:17;;;;;;;4.38;2.20;;;;;;;;;;5094350;28;20098;-54
2022/06/25 13:57:45;;;;;;;3.20;2.03;;;;;;;;;;5093987;28;20516;-56
2022/06/25 14:00:12;;;;;;;4.20;1.95;;;;;;;;;;5094134;28;20400;-57
2022/06/25 14:02:45;;;;;;;2.80;2.08;;;;;;;;;;5094061;28;20039;-55
2022/06/25 14:05:13;;;;;;;2.70;2.03;;;;;;;;;;5094036;28;20070;-55
2022/06/25 14:07:40;;;;;;;3.28;1.70;;;;;;;;;;5094158;28;20040;-56
2022/06/25 14:10:08;;;;;;;2.47;1.80;;;;;;;;;;5094132;28;20453;-56
2022/06/25 14:12:35;;;;;;;3.90;2.20;;;;;;;;;;5094019;28;20068;-57
2022/06/25 14:15:02;;;;;;;3.22;1.85;;;;;;;;;;5094008;28;20051;-57
2022/06/25 14:17:29;;;;;;;6.47;2.00;;;;;;;;;;5094063;28;20032;-57
2022/06/25 14:19:57;;;;;;;4.18;2.00;;;;;;;;;;5093302;28;20044;-54
2022/06/25 14:22:25;;;;;;;3.28;2.10;;;;;;;;;;5094180;28;20044;-58
2022/06/25 14:27:38;;;;;;;2.17;1.30;;;;;;;;;;5093692;28;20040;-58
2022/06/25 14:30:09;;;;;;;2.40;1.50;;;;;;;;;;5093465;28;20487;-57
2022/06/25 14:32:36;;;;;;;4.20;1.65;;;;;;;;;;5093627;28;20040;-57
2022/06/25 14:35:04;;;;;;;2.92;1.60;;;;;;;;;;5093501;28;20040;-57
2022/06/25 14:43:03;;;;;;;4.97;1.80;;;;;;;;;;5093155;28;20071;-55
2022/06/25 14:45:31;;;;;;;2.80;1.92;;;;;;;;;;5093482;28;20049;-57
2022/06/25 14:47:58;;;;;;;3.28;2.00;;;;;;;;;;5093368;28;20488;-55
2022/06/25 14:50:25;;;;;;;2.38;1.70;;;;;;;;;;5093153;28;20052;-57
2022/06/25 14:52:53;;;;;;;5.18;1.92;;;;;;;;;;5092551;28;20043;-57
2022/06/25 14:55:21;;;;;;;2.20;1.55;;;;;;;;;;5092830;28;20044;-56
2022/06/25 14:57:48;;;;;;;2.75;1.83;;;;;;;;;;5093236;28;20085;-58
2022/06/25 15:00:15;;;;;;;3.90;1.50;;;;;;;;;;5092877;28;20399;-55
2022/06/25 15:02:45;;;;;;;2.40;1.67;;;;;;;;;;5093197;28;20107;-57
2022/06/25 15:05:16;;;;;;;4.32;1.80;;;;;;;;;;5092910;28;20064;-58
2022/06/25 15:07:44;;;;;;;3.05;1.70;;;;;;;;;;5093083;28;20054;-58
2022/06/25 15:10:11;;;;;;;3.33;1.90;;;;;;;;;;5092931;28;20044;-58
2022/06/25 15:12:38;;;;;;;2.22;1.63;;;;;;;;;;5092799;28;20044;-56
2022/06/25 15:15:06;;;;;;;4.82;1.60;;;;;;;;;;5092827;28;20058;-57
2022/06/25 15:17:34;;;;;;;2.80;1.63;;;;;;;;;;5092734;28;20036;-57
2022/06/25 15:20:06;;;;;;;3.85;1.85;;;;;;;;;;5092676;28;20050;-56
2022/06/25 15:22:34;;;;;;;1.98;1.40;;;;;;;;;;5092458;28;20048;-59
2022/06/25 15:25:01;;;;;;;5.15;1.30;;;;;;;;;;5092948;28;20101;-58
2022/06/25 15:27:28;;;;;;;3.20;1.40;;;;;;;;;;5092629;28;20091;-55